createdAt,value
2023-05-09T00:01:31.749Z,22.61
2023-05-09T00:04:00.428Z,22.52
2023-05-09T00:06:28.337Z,22.45
2023-05-09T00:08:55.614Z,22.41
2023-05-09T00:11:23.495Z,22.45
2023-05-09T00:13:51.162Z,22.54
2023-05-09T00:16:18.491Z,22.42
2023-05-09T00:18:45.657Z,22.36
2023-05-09T00:21:14.277Z,22.38
2023-05-09T00:23:41.379Z,22.31
2023-05-09T00:26:08.513Z,22.29
2023-05-09T00:28:35.777Z,22.18
2023-05-09T00:31:04.339Z,22.13
2023-05-09T00:33:31.576Z,22.23
2023-05-09T00:35:58.742Z,22.32
2023-05-09T00:38:27.325Z,22.43
2023-05-09T00:40:54.458Z,22.48
2023-05-09T00:43:21.885Z,22.41
2023-05-09T00:45:50.227Z,22.39
2023-05-09T00:48:18.258Z,22.39
2023-05-09T00:50:45.417Z,22.46
2023-05-09T00:53:13.696Z,22.40
2023-05-09T00:55:42.429Z,22.28
2023-05-09T00:58:09.679Z,22.17
2023-05-09T01:00:36.815Z,22.13
2023-05-09T01:03:04.890Z,22.17
2023-05-09T01:05:43.055Z,22.07
2023-05-09T01:08:21.178Z,21.94
2023-05-09T01:11:01.064Z,21.94
2023-05-09T01:13:41.601Z,21.91
2023-05-09T01:16:31.217Z,21.87
2023-05-09T01:19:08.501Z,21.88
2023-05-09T01:21:40.818Z,21.91
2023-05-09T01:24:33.948Z,21.95
2023-05-09T01:27:33.098Z,21.98
2023-05-09T01:30:04.969Z,21.83
2023-05-09T01:32:38.087Z,21.81
2023-05-09T01:35:10.302Z,21.74
2023-05-09T01:37:42.642Z,21.74
2023-05-09T01:40:15.177Z,21.73
2023-05-09T01:42:45.605Z,21.70
2023-05-09T01:45:16.767Z,21.71
2023-05-09T01:47:45.207Z,21.64
2023-05-09T01:50:13.539Z,21.57
2023-05-09T01:52:43.498Z,21.49
2023-05-09T01:55:13.449Z,21.57
2023-05-09T01:57:43.319Z,21.62
2023-05-09T02:00:15.077Z,21.62
2023-05-09T02:02:43.224Z,21.68
2023-05-09T02:05:13.309Z,21.68
2023-05-09T02:07:42.808Z,21.59
2023-05-09T02:10:12.180Z,21.68
2023-05-09T02:12:40.361Z,21.65
2023-05-09T02:15:08.903Z,21.54
2023-05-09T02:17:37.473Z,21.56
2023-05-09T02:20:05.701Z,21.47
2023-05-09T02:22:32.958Z,21.54
2023-05-09T02:25:00.157Z,21.53
2023-05-09T02:27:28.357Z,21.47
2023-05-09T02:29:58.414Z,21.52
2023-05-09T02:32:30.823Z,21.56
2023-05-09T02:35:01.831Z,21.59
2023-05-09T02:37:29.436Z,21.55
2023-05-09T02:39:57.117Z,21.50
2023-05-09T02:42:26.847Z,21.50
2023-05-09T02:44:54.778Z,21.58
2023-05-09T02:47:22.918Z,21.62
2023-05-09T02:49:50.073Z,21.64
2023-05-09T02:52:18.562Z,21.58
2023-05-09T02:54:46.117Z,21.68
2023-05-09T02:57:13.500Z,21.68
2023-05-09T02:59:40.580Z,21.76
2023-05-09T03:02:07.716Z,21.65
2023-05-09T03:04:34.880Z,21.58
2023-05-09T03:07:01.915Z,21.55
2023-05-09T03:09:30.567Z,21.53
2023-05-09T03:11:57.837Z,21.45
2023-05-09T03:14:24.948Z,21.49
2023-05-09T03:16:52.480Z,21.56
2023-05-09T03:19:19.576Z,21.50
2023-05-09T03:21:46.706Z,21.49
2023-05-09T03:24:13.806Z,21.46
2023-05-09T03:26:42.298Z,21.48
2023-05-09T03:29:09.338Z,21.47
2023-05-09T03:31:36.656Z,21.50
2023-05-09T03:34:03.809Z,21.41
2023-05-09T03:36:30.839Z,21.38
2023-05-09T03:38:58.017Z,21.35
2023-05-09T03:41:25.522Z,21.32
2023-05-09T03:43:54.056Z,21.33
2023-05-09T03:46:21.147Z,21.41
2023-05-09T03:48:48.345Z,21.50
2023-05-09T03:51:15.538Z,21.46
2023-05-09T03:53:42.645Z,21.55
2023-05-09T03:56:09.739Z,21.57
2023-05-09T03:58:36.761Z,21.67
2023-05-09T04:01:05.898Z,21.57
2023-05-09T04:03:33.486Z,21.63
2023-05-09T04:06:00.909Z,21.72
2023-05-09T04:08:28.246Z,21.74
2023-05-09T04:10:55.451Z,21.76
2023-05-09T04:13:22.593Z,21.72
2023-05-09T04:15:49.806Z,21.67
2023-05-09T04:18:18.347Z,21.73
2023-05-09T04:20:45.432Z,21.73
2023-05-09T04:23:12.526Z,21.73
2023-05-09T04:25:39.966Z,21.70
2023-05-09T04:28:07.052Z,21.67
2023-05-09T04:30:34.296Z,21.68
2023-05-09T04:33:01.449Z,21.73
2023-05-09T04:35:29.965Z,21.81
2023-05-09T04:37:57.018Z,21.77
2023-05-09T04:40:26.624Z,21.71
2023-05-09T04:42:54.184Z,21.65
2023-05-09T04:45:21.385Z,21.57
2023-05-09T04:47:48.577Z,21.62
2023-05-09T04:50:15.753Z,21.75
2023-05-09T04:52:44.378Z,21.77
2023-05-09T04:55:11.620Z,21.80
2023-05-09T04:57:38.927Z,21.84
2023-05-09T05:00:07.548Z,22.08
2023-05-09T05:02:34.748Z,22.00
2023-05-09T05:05:10.669Z,22.21
2023-05-09T05:07:39.684Z,22.23
2023-05-09T05:10:09.808Z,22.23
2023-05-09T05:12:36.980Z,22.29
2023-05-09T05:15:05.032Z,22.41
2023-05-09T05:17:32.328Z,22.36
2023-05-09T05:19:59.531Z,22.41
2023-05-09T05:22:26.805Z,22.35
2023-05-09T05:24:53.923Z,22.37
2023-05-09T05:27:22.773Z,22.51
2023-05-09T05:29:49.886Z,22.45
2023-05-09T05:32:17.042Z,22.38
2023-05-09T05:34:44.229Z,22.45
2023-05-09T05:37:11.442Z,23.07
2023-05-09T05:39:38.554Z,23.08
2023-05-09T05:42:05.959Z,23.37
2023-05-09T05:44:34.583Z,23.53
2023-05-09T05:47:01.798Z,23.64
2023-05-09T05:49:28.902Z,23.75
2023-05-09T05:51:56.037Z,23.77
2023-05-09T05:54:23.194Z,23.60
2023-05-09T05:56:50.339Z,23.69
2023-05-09T05:59:17.504Z,23.57
2023-05-09T06:01:46.083Z,23.46
2023-05-09T06:04:13.341Z,23.32
2023-05-09T06:06:40.919Z,23.30
2023-05-09T06:09:08.303Z,23.39
2023-05-09T06:11:35.454Z,23.28
2023-05-09T06:14:02.557Z,23.39
2023-05-09T06:16:29.826Z,23.46
2023-05-09T06:18:58.560Z,23.48
2023-05-09T06:21:25.734Z,23.53
2023-05-09T06:24:07.654Z,23.59
2023-05-09T06:26:39.538Z,23.66
2023-05-09T06:29:06.716Z,23.80
2023-05-09T06:31:34.345Z,23.69
2023-05-09T06:34:03.010Z,23.79
2023-05-09T06:36:30.237Z,23.93
2023-05-09T06:38:57.258Z,23.98
2023-05-09T06:41:24.720Z,24.04
2023-05-09T06:43:51.881Z,24.10
2023-05-09T06:46:19.662Z,24.34
2023-05-09T06:48:46.840Z,24.47
2023-05-09T06:51:15.467Z,24.60
2023-05-09T06:53:42.559Z,24.62
2023-05-09T06:56:09.924Z,24.86
2023-05-09T06:58:37.473Z,25.06
2023-05-09T07:01:05.086Z,25.31
2023-05-09T07:03:32.429Z,25.55
2023-05-09T07:05:59.517Z,25.64
2023-05-09T07:08:28.588Z,25.76
2023-05-09T07:10:56.018Z,25.87
2023-05-09T07:13:23.193Z,25.74
2023-05-09T07:15:50.424Z,25.92
2023-05-09T07:18:17.878Z,26.17
2023-05-09T07:20:45.058Z,26.00
2023-05-09T07:23:12.246Z,26.17
2023-05-09T07:25:41.057Z,26.45
2023-05-09T07:28:08.257Z,26.51
2023-05-09T07:30:35.383Z,26.58
2023-05-09T07:33:04.120Z,26.45
2023-05-09T07:35:31.328Z,26.33
2023-05-09T07:37:58.386Z,26.24
2023-05-09T07:40:25.692Z,26.42
2023-05-09T07:42:54.345Z,26.65
2023-05-09T07:45:23.705Z,26.67
2023-05-09T07:47:51.296Z,26.60
2023-05-09T07:50:18.791Z,26.81
2023-05-09T07:52:45.946Z,26.96
2023-05-09T07:55:13.097Z,27.15
2023-05-09T07:57:40.541Z,27.27
2023-05-09T08:00:11.005Z,27.41
2023-05-09T08:02:38.334Z,27.37
2023-05-09T08:05:06.885Z,27.37
2023-05-09T08:07:34.341Z,27.50
2023-05-09T08:10:01.541Z,27.49
2023-05-09T08:12:28.698Z,27.43
2023-05-09T08:14:55.820Z,27.30
2023-05-09T08:17:24.530Z,27.30
2023-05-09T08:19:51.741Z,27.18
2023-05-09T08:22:19.398Z,27.15
2023-05-09T08:24:46.602Z,27.13
2023-05-09T08:27:14.239Z,27.16
2023-05-09T08:29:41.522Z,27.15
2023-05-09T08:32:09.120Z,27.05
2023-05-09T08:34:37.589Z,26.97
2023-05-09T08:37:05.139Z,26.94
2023-05-09T08:39:32.981Z,27.00
2023-05-09T08:42:01.643Z,26.93
2023-05-09T08:44:31.124Z,26.65
2023-05-09T08:47:00.892Z,26.80
2023-05-09T08:49:28.310Z,26.81
2023-05-09T08:51:58.095Z,26.71
2023-05-09T08:54:25.778Z,26.59
2023-05-09T08:56:53.186Z,26.51
2023-05-09T08:59:20.983Z,26.37
2023-05-09T09:01:48.723Z,26.25
2023-05-09T09:04:15.977Z,26.25
2023-05-09T09:06:43.359Z,26.15
2023-05-09T09:09:13.875Z,26.01
2023-05-09T09:11:42.856Z,25.98
2023-05-09T09:14:13.143Z,25.90
2023-05-09T09:16:41.981Z,26.00
2023-05-09T09:19:13.078Z,25.97
2023-05-09T09:21:42.082Z,25.98
2023-05-09T09:24:11.562Z,25.96
2023-05-09T09:26:47.089Z,26.03
2023-05-09T09:29:15.446Z,26.05
2023-05-09T09:31:46.157Z,25.98
2023-05-09T09:34:19.308Z,26.14
2023-05-09T09:36:46.422Z,26.34
2023-05-09T09:39:14.610Z,26.47
2023-05-09T09:41:43.463Z,26.50
2023-05-09T09:44:13.584Z,26.74
2023-05-09T09:46:45.478Z,26.75
2023-05-09T09:49:14.396Z,27.06
2023-05-09T09:51:42.169Z,27.30
2023-05-09T09:54:10.988Z,27.33
2023-05-09T09:56:47.948Z,26.84
2023-05-09T09:59:17.277Z,27.07
2023-05-09T10:01:59.055Z,27.02
2023-05-09T10:04:28.845Z,27.07
2023-05-09T10:06:58.133Z,27.04
2023-05-09T10:09:27.223Z,27.03
2023-05-09T10:11:57.163Z,27.21
2023-05-09T10:14:26.067Z,27.11
2023-05-09T10:16:56.490Z,27.04
2023-05-09T10:19:26.278Z,27.37
2023-05-09T10:21:57.864Z,27.63
2023-05-09T10:24:33.914Z,27.48
2023-05-09T10:27:06.231Z,27.81
2023-05-09T10:29:36.441Z,27.94
2023-05-09T10:32:15.171Z,27.74
2023-05-09T10:34:48.022Z,27.82
2023-05-09T10:37:16.297Z,27.71
2023-05-09T10:39:44.461Z,27.85
2023-05-09T10:42:13.934Z,27.99
2023-05-09T10:44:42.137Z,28.02
2023-05-09T10:47:10.098Z,28.00
2023-05-09T10:49:37.859Z,27.80
2023-05-09T10:52:05.287Z,27.69
2023-05-09T10:54:32.415Z,27.76
2023-05-09T10:56:59.865Z,27.68
2023-05-09T10:59:36.872Z,27.30
2023-05-09T11:02:05.294Z,27.30
2023-05-09T11:04:33.026Z,27.28
2023-05-09T11:07:00.935Z,27.13
2023-05-09T11:09:30.705Z,27.06
2023-05-09T11:11:59.522Z,26.82
2023-05-09T11:14:39.644Z,26.74
2023-05-09T11:17:08.625Z,26.66
2023-05-09T11:19:38.614Z,26.45
2023-05-09T11:22:14.286Z,26.28
2023-05-09T11:24:45.791Z,26.32
2023-05-09T11:27:16.923Z,26.32
2023-05-09T11:29:50.008Z,26.30
2023-05-09T11:32:18.225Z,26.30
2023-05-09T11:34:46.535Z,26.13
2023-05-09T11:37:17.022Z,26.18
2023-05-09T11:39:58.482Z,26.03
2023-05-09T11:42:26.290Z,26.18
2023-05-09T11:44:56.089Z,26.23
2023-05-09T11:47:23.184Z,26.33
2023-05-09T11:49:50.612Z,26.47
2023-05-09T11:52:19.463Z,26.57
2023-05-09T11:54:47.183Z,26.60
2023-05-09T11:57:15.050Z,26.54
2023-05-09T11:59:42.884Z,26.48
2023-05-09T12:02:11.824Z,26.51
2023-05-09T12:04:39.124Z,26.42
2023-05-09T12:07:06.486Z,26.25
2023-05-09T12:09:35.858Z,26.34
2023-05-09T12:12:09.198Z,26.31
2023-05-09T12:14:36.298Z,26.38
2023-05-09T12:17:03.900Z,26.37
2023-05-09T12:19:32.941Z,26.37
2023-05-09T12:22:02.333Z,26.37
2023-05-09T12:24:30.735Z,26.39
2023-05-09T12:27:00.173Z,26.44
2023-05-09T12:29:28.516Z,26.39
2023-05-09T12:31:56.769Z,26.40
2023-05-09T12:34:24.817Z,26.34
2023-05-09T12:36:53.463Z,26.32
2023-05-09T12:39:21.186Z,26.31
2023-05-09T12:42:00.574Z,26.32
2023-05-09T12:44:29.121Z,26.33
2023-05-09T12:46:58.237Z,26.24
2023-05-09T12:49:26.422Z,26.06
2023-05-09T12:52:01.596Z,26.15
2023-05-09T12:54:30.474Z,26.16
2023-05-09T12:56:58.816Z,25.95
2023-05-09T12:59:27.902Z,25.97
2023-05-09T13:01:57.234Z,25.94
2023-05-09T13:04:26.342Z,25.95
2023-05-09T13:06:57.262Z,25.71
2023-05-09T13:09:26.458Z,25.76
2023-05-09T13:11:54.049Z,25.77
2023-05-09T13:14:23.160Z,25.72
2023-05-09T13:16:50.598Z,25.70
2023-05-09T13:19:17.931Z,25.68
2023-05-09T13:21:45.366Z,25.63
2023-05-09T13:24:13.896Z,25.60
2023-05-09T13:26:41.370Z,25.44
2023-05-09T13:29:08.554Z,25.45
2023-05-09T13:31:36.026Z,25.46
2023-05-09T13:34:03.132Z,25.39
2023-05-09T13:36:30.195Z,25.34
2023-05-09T13:38:57.302Z,25.32
2023-05-09T13:41:26.091Z,25.33
2023-05-09T13:43:53.310Z,25.31
2023-05-09T13:46:20.556Z,25.21
2023-05-09T13:48:47.865Z,25.13
2023-05-09T13:51:15.199Z,25.06
2023-05-09T13:53:42.296Z,24.96
2023-05-09T13:56:09.644Z,24.81
2023-05-09T13:58:38.348Z,24.75
2023-05-09T14:01:05.783Z,24.68
2023-05-09T14:03:33.065Z,24.76
2023-05-09T14:06:00.337Z,24.77
2023-05-09T14:08:27.585Z,24.80
2023-05-09T14:10:54.659Z,24.76
2023-05-09T14:13:22.115Z,24.58
2023-05-09T14:15:50.846Z,24.63
2023-05-09T14:18:20.809Z,24.60
2023-05-09T14:20:48.604Z,24.61
2023-05-09T14:23:16.016Z,24.53
2023-05-09T14:25:43.064Z,24.49
2023-05-09T14:28:10.400Z,24.45
2023-05-09T14:30:37.700Z,24.41
2023-05-09T14:33:06.804Z,24.38
2023-05-09T14:35:34.488Z,24.34
2023-05-09T14:38:02.019Z,24.25
2023-05-09T14:40:29.361Z,24.21
2023-05-09T14:42:56.742Z,24.19
2023-05-09T14:45:24.007Z,24.23
2023-05-09T14:47:51.409Z,24.15
2023-05-09T14:50:20.702Z,24.11
2023-05-09T14:52:49.578Z,23.99
2023-05-09T14:55:17.163Z,23.96
2023-05-09T14:57:44.578Z,23.82
2023-05-09T15:00:21.056Z,23.78
2023-05-09T15:02:48.820Z,23.76
2023-05-09T15:05:16.312Z,23.72
2023-05-09T15:07:45.139Z,23.63
2023-05-09T15:10:12.284Z,23.57
2023-05-09T15:12:39.507Z,23.53
2023-05-09T15:15:14.193Z,23.48
2023-05-09T15:17:41.442Z,23.38
2023-05-09T15:20:09.360Z,23.36
2023-05-09T15:22:36.582Z,23.33
2023-05-09T15:25:06.745Z,23.25
2023-05-09T15:27:33.902Z,23.22
2023-05-09T15:30:01.111Z,23.19
2023-05-09T15:32:28.607Z,23.18
2023-05-09T15:34:55.807Z,23.16
2023-05-09T15:37:22.978Z,23.14
2023-05-09T15:39:50.293Z,23.07
2023-05-09T15:42:19.293Z,23.06
2023-05-09T15:44:46.438Z,23.03
2023-05-09T15:47:13.637Z,23.03
2023-05-09T15:49:40.856Z,23.01
2023-05-09T15:52:09.501Z,23.03
2023-05-09T15:54:37.904Z,23.00
2023-05-09T15:57:05.127Z,23.00
2023-05-09T15:59:33.925Z,22.97
2023-05-09T16:02:01.164Z,22.94
2023-05-09T16:04:28.362Z,22.97
2023-05-09T16:06:55.580Z,22.95
2023-05-09T16:09:22.957Z,22.87
2023-05-09T16:11:50.063Z,22.92
2023-05-09T16:14:17.333Z,22.87
2023-05-09T16:16:45.965Z,22.83
2023-05-09T16:19:13.784Z,22.84
2023-05-09T16:21:41.186Z,22.81
2023-05-09T16:24:08.573Z,22.83
2023-05-09T16:26:35.668Z,22.78
2023-05-09T16:29:02.823Z,22.78
2023-05-09T16:31:30.122Z,22.78
2023-05-09T16:33:58.815Z,22.74
2023-05-09T16:36:26.083Z,22.73
2023-05-09T16:38:53.477Z,22.73
2023-05-09T16:41:20.543Z,22.74
2023-05-09T16:43:47.661Z,22.77
2023-05-09T16:46:14.813Z,22.75
2023-05-09T16:48:41.987Z,22.74
2023-05-09T16:51:10.642Z,22.76
2023-05-09T16:53:37.898Z,22.73
2023-05-09T16:56:05.628Z,22.70
2023-05-09T16:58:33.161Z,22.67
2023-05-09T17:01:01.305Z,22.69
2023-05-09T17:03:28.485Z,22.63
2023-05-09T17:05:55.598Z,22.64
2023-05-09T17:08:24.216Z,22.67
2023-05-09T17:10:51.305Z,22.64
2023-05-09T17:13:18.550Z,22.58
2023-05-09T17:15:45.733Z,22.43
2023-05-09T17:18:17.053Z,22.46
2023-05-09T17:20:46.554Z,22.38
2023-05-09T17:23:13.778Z,22.38
2023-05-09T17:25:42.347Z,22.33
2023-05-09T17:28:09.622Z,22.40
2023-05-09T17:30:36.769Z,22.33
2023-05-09T17:33:04.225Z,22.75
2023-05-09T17:35:31.508Z,22.58
2023-05-09T17:37:58.663Z,22.91
2023-05-09T17:40:25.977Z,22.70
2023-05-09T17:42:54.611Z,22.58
2023-05-09T17:45:22.166Z,22.54
2023-05-09T17:47:49.293Z,22.43
2023-05-09T17:50:16.820Z,22.35
2023-05-09T17:52:44.424Z,22.28
2023-05-09T17:55:11.867Z,22.22
2023-05-09T17:57:39.143Z,22.23
2023-05-09T18:00:09.267Z,22.21
2023-05-09T18:02:36.736Z,22.19
2023-05-09T18:05:04.313Z,22.12
2023-05-09T18:07:32.297Z,22.21
2023-05-09T18:09:59.600Z,22.12
2023-05-09T18:12:26.883Z,22.13
2023-05-09T18:14:54.322Z,22.12
2023-05-09T18:17:22.961Z,22.08
2023-05-09T18:19:50.080Z,21.98
2023-05-09T18:22:17.220Z,22.01
2023-05-09T18:24:44.424Z,21.99
2023-05-09T18:27:11.787Z,21.85
2023-05-09T18:29:39.022Z,21.84
2023-05-09T18:32:06.322Z,21.90
2023-05-09T18:34:34.980Z,21.88
2023-05-09T18:37:02.118Z,22.35
2023-05-09T18:39:29.266Z,22.12
2023-05-09T18:41:56.793Z,22.09
2023-05-09T18:44:24.025Z,22.05
2023-05-09T18:46:51.205Z,22.01
2023-05-09T18:49:18.408Z,21.99
2023-05-09T18:51:46.962Z,21.93
2023-05-09T18:54:14.098Z,21.91
2023-05-09T18:56:41.327Z,21.86
2023-05-09T18:59:08.523Z,21.74
2023-05-09T19:01:36.006Z,21.77
2023-05-09T19:04:03.258Z,21.80
2023-05-09T19:06:30.444Z,21.77
2023-05-09T19:08:59.044Z,21.79
2023-05-09T19:11:26.294Z,21.78
2023-05-09T19:13:53.439Z,21.75
2023-05-09T19:16:20.713Z,21.79
2023-05-09T19:18:48.173Z,21.87
2023-05-09T19:21:15.838Z,21.80
2023-05-09T19:23:43.013Z,21.79
2023-05-09T19:26:12.821Z,21.83
2023-05-09T19:28:40.597Z,21.85
2023-05-09T19:31:08.420Z,21.86
2023-05-09T19:33:35.744Z,21.90
2023-05-09T19:36:03.100Z,21.86
2023-05-09T19:38:30.697Z,21.84
2023-05-09T19:40:57.926Z,21.81
2023-05-09T19:43:26.846Z,21.80
2023-05-09T19:45:54.000Z,21.79
2023-05-09T19:48:21.305Z,21.75
2023-05-09T19:50:48.905Z,21.74
2023-05-09T19:53:16.103Z,21.73
2023-05-09T19:55:43.352Z,21.51
2023-05-09T19:58:10.447Z,21.58
2023-05-09T20:00:40.795Z,21.66
2023-05-09T20:03:08.294Z,21.58
2023-05-09T20:08:21.216Z,21.62
2023-05-09T20:10:48.631Z,21.55
2023-05-09T20:13:15.727Z,21.52
2023-05-09T20:15:44.696Z,21.52
2023-05-09T20:18:11.730Z,21.53
2023-05-09T20:20:38.837Z,21.52
2023-05-09T20:23:05.919Z,21.51
2023-05-09T20:25:33.052Z,21.53
2023-05-09T20:28:00.223Z,21.46
2023-05-09T20:30:27.313Z,21.47
2023-05-09T20:32:55.930Z,21.44
2023-05-09T20:35:23.277Z,21.46
2023-05-09T20:37:50.553Z,21.51
2023-05-09T20:40:17.960Z,21.50
2023-05-09T20:42:45.075Z,21.46
2023-05-09T20:45:12.290Z,21.47
2023-05-09T20:47:39.440Z,21.42
2023-05-09T20:50:09.656Z,21.35
2023-05-09T20:52:36.916Z,21.22
2023-05-09T20:55:04.856Z,21.27
2023-05-09T20:57:32.618Z,21.31
2023-05-09T20:59:59.857Z,21.34
2023-05-09T21:02:27.058Z,21.33
2023-05-09T21:04:54.537Z,21.31
2023-05-09T21:07:23.259Z,21.35
2023-05-09T21:09:50.360Z,21.30
2023-05-09T21:12:17.559Z,21.32
2023-05-09T21:14:44.655Z,21.35
2023-05-09T21:17:12.064Z,21.37
2023-05-09T21:19:39.252Z,21.40
2023-05-09T21:22:06.483Z,21.40
2023-05-09T21:24:35.179Z,21.38
2023-05-09T21:27:02.363Z,21.35
2023-05-09T21:29:29.533Z,21.30
2023-05-09T21:31:56.596Z,21.34
2023-05-09T21:34:23.621Z,21.31
2023-05-09T21:36:50.855Z,21.34
2023-05-09T21:39:18.458Z,21.41
2023-05-09T21:41:46.997Z,21.44
2023-05-09T21:44:14.150Z,21.41
2023-05-09T21:46:41.328Z,21.37
2023-05-09T21:49:08.534Z,21.38
2023-05-09T21:51:35.773Z,21.40
2023-05-09T21:54:02.896Z,21.39
2023-05-09T21:56:29.971Z,21.34
2023-05-09T21:58:58.491Z,21.36
2023-05-09T22:01:25.557Z,21.37
2023-05-09T22:03:52.848Z,21.35
2023-05-09T22:06:20.014Z,21.37
2023-05-09T22:08:47.091Z,21.39
2023-05-09T22:11:14.914Z,21.38
2023-05-09T22:13:42.438Z,21.36
2023-05-09T22:16:11.001Z,21.39
2023-05-09T22:18:38.128Z,21.34
2023-05-09T22:21:05.991Z,21.34
2023-05-09T22:23:33.041Z,21.30
2023-05-09T22:26:00.136Z,21.35
2023-05-09T22:28:27.633Z,21.29
2023-05-09T22:30:54.634Z,21.34
2023-05-09T22:33:23.112Z,21.35
2023-05-09T22:35:50.319Z,21.22
2023-05-09T22:38:17.551Z,21.20
2023-05-09T22:40:44.703Z,21.74
2023-05-09T22:43:11.974Z,22.10
2023-05-09T22:45:39.096Z,22.03
2023-05-09T22:48:06.864Z,21.92
2023-05-09T22:50:35.662Z,22.14
2023-05-09T22:53:03.109Z,22.18
2023-05-09T22:55:30.522Z,22.12
2023-05-09T22:57:57.816Z,22.06
2023-05-09T23:00:25.051Z,22.12
2023-05-09T23:02:52.934Z,22.19
2023-05-09T23:05:20.361Z,22.02
2023-05-09T23:07:48.895Z,22.12
2023-05-09T23:10:16.361Z,22.14
2023-05-09T23:12:43.672Z,22.01
2023-05-09T23:15:11.378Z,22.12
2023-05-09T23:17:38.740Z,22.07
2023-05-09T23:20:07.386Z,22.26
2023-05-09T23:22:34.623Z,22.26
2023-05-09T23:25:03.260Z,22.12
2023-05-09T23:27:30.347Z,22.12
2023-05-09T23:29:57.406Z,22.12
2023-05-09T23:32:24.526Z,22.05
2023-05-09T23:34:51.704Z,22.13
2023-05-09T23:37:18.792Z,22.05
2023-05-09T23:39:45.906Z,21.97
2023-05-09T23:42:14.562Z,22.04
2023-05-09T23:44:41.780Z,22.05
2023-05-09T23:47:08.964Z,22.01
2023-05-09T23:49:36.137Z,21.75
2023-05-09T23:52:03.252Z,21.67
2023-05-09T23:54:30.359Z,21.76
2023-05-09T23:56:57.548Z,21.57
2023-05-09T23:59:26.237Z,21.81
